Accord — SVA7378 — position and weather

sailwx.info

Track history (hours):
 
Tides and Currents Weather Stations Pressure Air Temp Water Temp Dewpoint Dewpoint Depression Visibility Wind Speed Wind Dir Waves Ship Positions

Accord

Last reported at 2017-Dec-11 17:00 UTC. Time now 2017-Dec-11 22:55 UTC.
Position N 38°02' E 023°31'.

Length 77 m; draft 4.4 m.

Type: Tanker. MMSI: 239998600.

Date/timePositionNaut miles runAvg speedWind from/ knotsBaromVisibWave heightAir tempDewpointWater temp
2017-Dec-11 17:00N 38°02' E 023°31'0 0.0
2017-Dec-11 16:30N 38°02' E 023°31'0 0.0
2017-Dec-11 16:00N 38°02' E 023°31'0 0.0
2017-Dec-11 15:30N 38°02' E 023°31'0 0.0
2017-Dec-11 15:00N 38°02' E 023°31'3 6.4
2017-Dec-11 14:30N 37°59' E 023°33'4 7.2
2017-Dec-11 14:00N 37°56' E 023°35'1 2.8
2017-Dec-11 13:30N 37°55' E 023°34'0 0.0
2017-Dec-11 13:00N 37°55' E 023°34'0 0.0
2017-Dec-11 12:30N 37°55' E 023°34'0 0.0
2017-Dec-11 12:00N 37°55' E 023°34'0 0.0
2017-Dec-11 11:30N 37°55' E 023°34'0 0.0
2017-Dec-11 11:00N 37°55' E 023°34'0 0.0
2017-Dec-11 10:30N 37°55' E 023°34'0 0.1
2017-Dec-11 10:00N 37°55' E 023°34'2 4.1
2017-Dec-11 09:30N 37°57' E 023°34'4 7.5
2017-Dec-11 09:00N 38°00' E 023°32'1 2.2
2017-Dec-11 08:30N 38°01' E 023°31'0 0.0
2017-Dec-11 08:00N 38°01' E 023°31'0 0.0
2017-Dec-11 07:30N 38°01' E 023°31'0 0.1
2017-Dec-11 07:00N 38°01' E 023°31'0 0.1
2017-Dec-11 06:30N 38°01' E 023°31'0 0.1
2017-Dec-11 06:00N 38°01' E 023°31'0 0.0
2017-Dec-11 05:30N 38°01' E 023°31'0 0.0
2017-Dec-11 05:00N 38°01' E 023°31'1 1.5
2017-Dec-11 04:30N 38°02' E 023°31'1 1.1
2017-Dec-11 04:00N 38°03' E 023°31'0 0.0
2017-Dec-11 03:30N 38°03' E 023°31'0 0.0
2017-Dec-11 03:00N 38°03' E 023°31'0 0.0
2017-Dec-11 02:30N 38°03' E 023°31'0 0.0
2017-Dec-11 02:01N 38°03' E 023°31'0 0.0
2017-Dec-11 01:30N 38°03' E 023°31'0 0.0
2017-Dec-11 01:00N 38°03' E 023°31'0 0.0
2017-Dec-11 00:30N 38°03' E 023°31'0 0.0
2017-Dec-11 00:00N 38°03' E 023°31'0 0.0
2017-Dec-10 23:30N 38°03' E 023°31'0 0.0
2017-Dec-10 23:00N 38°03' E 023°31'0 0.0
2017-Dec-10 22:30N 38°03' E 023°31'0 0.0
2017-Dec-10 22:00N 38°03' E 023°31'0 0.0
2017-Dec-10 21:30N 38°03' E 023°31'0 0.0
2017-Dec-10 21:00N 38°03' E 023°31'0 0.0
2017-Dec-10 20:30N 38°03' E 023°31'0 0.0
2017-Dec-10 20:00N 38°03' E 023°31'0 0.0
2017-Dec-10 19:30N 38°03' E 023°31'0 0.0
2017-Dec-10 19:00N 38°03' E 023°31'0 0.0
2017-Dec-10 18:30N 38°03' E 023°31'0 0.0
2017-Dec-10 18:00N 38°03' E 023°31'0 0.0
2017-Dec-10 17:30N 38°03' E 023°31'0 0.0
2017-Dec-10 17:00N 38°03' E 023°31'0 0.0
2017-Dec-10 16:30N 38°03' E 023°31'0 0.0
2017-Dec-10 16:00N 38°03' E 023°31'0 0.0
2017-Dec-10 15:30N 38°03' E 023°31'0 0.0
2017-Dec-10 15:00N 38°03' E 023°31'1 2.4
2017-Dec-10 14:30N 38°02' E 023°33'2 4.8
2017-Dec-10 14:00N 38°02' E 023°36'0 0.0
2017-Dec-10 13:30N 38°02' E 023°36'0 0.0
2017-Dec-10 13:00N 38°02' E 023°36'0 0.0
2017-Dec-10 12:30N 38°02' E 023°36'0 0.0
2017-Dec-10 12:00N 38°02' E 023°36'0 0.0
2017-Dec-10 11:30N 38°02' E 023°36'0 0.0
2017-Dec-10 11:00N 38°02' E 023°36'1 1.4
2017-Dec-10 10:30N 38°01' E 023°35'1 2.3
2017-Dec-10 10:00N 38°01' E 023°34'3 6.3
2017-Dec-10 09:30N 37°57' E 023°33'3 5.3
2017-Dec-10 09:00N 37°55' E 023°34'3 6.5
2017-Dec-10 08:30N 37°52' E 023°32'0 0.0
2017-Dec-10 08:00N 37°52' E 023°32'0 0.0
2017-Dec-10 07:30N 37°52' E 023°32'0 0.6
2017-Dec-10 07:00N 37°52' E 023°32'4 7.4
2017-Dec-10 06:30N 37°55' E 023°34'3 6.1
2017-Dec-10 06:00N 37°58' E 023°33'4 7.7
2017-Dec-10 05:30N 38°02' E 023°32'1 1.1
2017-Dec-10 05:00N 38°03' E 023°31'0 0.0
2017-Dec-10 04:30N 38°03' E 023°31'0 0.0
2017-Dec-10 04:00N 38°03' E 023°31'0 0.0
2017-Dec-10 03:30N 38°03' E 023°31'0 0.0
2017-Dec-10 03:01N 38°03' E 023°31'0 0.0
2017-Dec-10 02:30N 38°03' E 023°31'0 0.0
2017-Dec-10 02:00N 38°03' E 023°31'0 0.0
2017-Dec-10 01:30N 38°03' E 023°31'0 0.0
2017-Dec-10 01:00N 38°03' E 023°31'0 0.0
2017-Dec-10 00:31N 38°03' E 023°31'0 0.0
2017-Dec-10 00:00N 38°03' E 023°31'0 0.0
2017-Dec-09 23:31N 38°03' E 023°31'0 0.0
2017-Dec-09 23:00N 38°03' E 023°31'0 0.0
2017-Dec-09 22:30N 38°03' E 023°31'0 0.0
2017-Dec-09 22:00N 38°03' E 023°31'0 0.0
2017-Dec-09 21:30N 38°03' E 023°31'0 0.0
2017-Dec-09 21:01N 38°03' E 023°31'0 0.0
2017-Dec-09 20:30N 38°03' E 023°31'0 0.0
2017-Dec-09 20:00N 38°03' E 023°31'0 0.0
2017-Dec-09 19:30N 38°03' E 023°31'0 0.0
2017-Dec-09 19:00N 38°03' E 023°31'0 0.0
2017-Dec-09 18:30N 38°03' E 023°31'0 0.0
2017-Dec-09 18:00N 38°03' E 023°31'0 0.0
2017-Dec-09 17:30N 38°03' E 023°31'0 0.0
2017-Dec-09 17:00N 38°03' E 023°31'0 0.0
2017-Dec-09 16:30N 38°03' E 023°31'0 0.0
2017-Dec-09 16:00N 38°03' E 023°31'0 0.0
2017-Dec-09 15:30N 38°03' E 023°31'0 0.0
2017-Dec-09 15:00N 38°03' E 023°31'0 0.0
2017-Dec-09 14:30N 38°03' E 023°31'0 0.0
2017-Dec-09 14:00N 38°03' E 023°31'0 0.0
2017-Dec-09 13:30N 38°03' E 023°31'0 0.0
2017-Dec-09 13:00N 38°03' E 023°31'0 0.0
2017-Dec-09 12:30N 38°03' E 023°31'0 0.0
2017-Dec-09 12:00N 38°03' E 023°31'0 0.0
2017-Dec-09 11:30N 38°03' E 023°31'0 0.0
2017-Dec-09 11:00N 38°03' E 023°31'0 0.0
2017-Dec-09 10:30N 38°03' E 023°31'0 0.0
2017-Dec-09 10:00N 38°03' E 023°31'0 0.0
2017-Dec-09 09:30N 38°03' E 023°31'0 0.0
2017-Dec-09 09:00N 38°03' E 023°31'0 0.0
2017-Dec-09 08:30N 38°03' E 023°31'0 0.0
2017-Dec-09 08:00N 38°03' E 023°31'0 0.0
2017-Dec-09 07:30N 38°03' E 023°31'0 0.0
2017-Dec-09 07:00N 38°03' E 023°31'0 0.0
2017-Dec-09 06:30N 38°03' E 023°31'0 0.0
2017-Dec-09 06:00N 38°03' E 023°31'0 0.0
2017-Dec-09 05:30N 38°03' E 023°31'0 0.0
2017-Dec-09 05:00N 38°03' E 023°31'0 0.0
2017-Dec-09 04:30N 38°03' E 023°31'0 0.0
2017-Dec-09 04:01N 38°03' E 023°31'0 0.0
2017-Dec-09 03:30N 38°03' E 023°31'0 0.0
2017-Dec-09 03:00N 38°03' E 023°31'0 0.0
2017-Dec-09 02:30N 38°03' E 023°31'0 0.0
2017-Dec-09 02:00N 38°03' E 023°31'0 0.0
2017-Dec-09 01:30N 38°03' E 023°31'0 0.4
2017-Dec-09 01:00N 38°02' E 023°32'4 8.0
2017-Dec-09 00:30N 38°00' E 023°27'3 5.3
2017-Dec-09 00:00N 37°58' E 023°26'4 7.9
2017-Dec-08 23:30N 37°55' E 023°23'4 7.9
2017-Dec-08 23:00N 37°52' E 023°27'3 5.3
2017-Dec-08 22:30N 37°52' E 023°30'0 0.1
2017-Dec-08 22:00N 37°52' E 023°30'0 0.1
2017-Dec-08 21:30N 37°52' E 023°30'0 0.1
2017-Dec-08 21:00N 37°52' E 023°30'0 0.0
2017-Dec-08 20:30N 37°52' E 023°30'0 0.0
2017-Dec-08 20:00N 37°52' E 023°30'0 0.1
2017-Dec-08 19:30N 37°52' E 023°30'0 0.0
2017-Dec-08 19:00N 37°52' E 023°30'0 0.1
2017-Dec-08 18:30N 37°52' E 023°30'0 0.0
2017-Dec-08 18:00N 37°52' E 023°30'0 0.0
2017-Dec-08 17:30N 37°52' E 023°30'0 0.1
2017-Dec-08 17:00N 37°52' E 023°30'0 0.9
2017-Dec-08 16:30N 37°53' E 023°31'4 7.8
2017-Dec-08 16:00N 37°56' E 023°34'3 5.2
2017-Dec-08 15:30N 37°58' E 023°33'4 7.4
2017-Dec-08 15:00N 38°01' E 023°35'1 1.1
2017-Dec-08 14:30N 38°02' E 023°36'0 0.0
2017-Dec-08 14:00N 38°02' E 023°36'0 0.0
2017-Dec-08 13:30N 38°02' E 023°36'0 0.0
2017-Dec-08 13:00N 38°02' E 023°36'0 0.0
2017-Dec-08 12:30N 38°02' E 023°36'0 0.0
2017-Dec-08 12:00N 38°02' E 023°36'0 0.0
2017-Dec-08 11:30N 38°02' E 023°36'0 0.0
2017-Dec-08 11:00N 38°02' E 023°36'0 0.0
2017-Dec-08 10:30N 38°02' E 023°36'0 0.0
2017-Dec-08 10:00N 38°02' E 023°36'0 0.0
2017-Dec-08 09:30N 38°02' E 023°36'0 0.8
2017-Dec-08 09:00N 38°02' E 023°35'0 0.4
2017-Dec-08 08:30N 38°02' E 023°35'0 0.0
2017-Dec-08 08:00N 38°02' E 023°35'0 0.0
2017-Dec-08 07:30N 38°02' E 023°35'0 0.2
2017-Dec-08 07:00N 38°02' E 023°35'3 5.4
2017-Dec-08 06:30N 38°02' E 023°31'0 0.2
2017-Dec-08 06:00N 38°03' E 023°31'0 0.0
2017-Dec-08 05:30N 38°03' E 023°31'0 0.0
2017-Dec-08 05:00N 38°03' E 023°31'0 0.0
2017-Dec-08 04:30N 38°03' E 023°31'0 0.0
2017-Dec-08 04:00N 38°03' E 023°31'0 0.0
2017-Dec-08 03:30N 38°03' E 023°31'0 0.0
2017-Dec-08 03:00N 38°03' E 023°31'0 0.0
2017-Dec-08 02:30N 38°03' E 023°31'0 0.0
2017-Dec-08 02:00N 38°03' E 023°31'0 0.0
2017-Dec-08 01:30N 38°03' E 023°31'0 0.0
2017-Dec-08 01:00N 38°03' E 023°31'0 0.0
2017-Dec-08 00:30N 38°03' E 023°31'0 0.0
2017-Dec-08 00:00N 38°03' E 023°31'0 0.0
2017-Dec-07 23:30N 38°03' E 023°31'0 0.0
2017-Dec-07 23:00N 38°03' E 023°31'0 0.0
2017-Dec-07 22:30N 38°03' E 023°31'0 0.0
2017-Dec-07 22:00N 38°03' E 023°31'0 0.0
2017-Dec-07 21:30N 38°03' E 023°31'0 0.0
2017-Dec-07 21:00N 38°03' E 023°31'0 0.0
2017-Dec-07 20:30N 38°03' E 023°31'0 0.0
2017-Dec-07 20:00N 38°03' E 023°31'0 0.0
2017-Dec-07 19:30N 38°03' E 023°31'0 0.0
2017-Dec-07 19:00N 38°03' E 023°31'0 0.0
2017-Dec-07 18:30N 38°03' E 023°31'0 0.0
2017-Dec-07 18:00N 38°03' E 023°31'0 0.0
2017-Dec-07 17:30N 38°03' E 023°31'0 0.0
2017-Dec-07 17:00N 38°03' E 023°31'0 0.0
2017-Dec-07 16:30N 38°03' E 023°31'0 0.0
2017-Dec-07 16:00N 38°03' E 023°31'0 0.0
2017-Dec-07 15:30N 38°03' E 023°31'0 0.0
2017-Dec-07 15:00N 38°03' E 023°31'0 0.0
2017-Dec-07 14:30N 38°03' E 023°31'0 0.0
2017-Dec-07 14:00N 38°03' E 023°31'0 0.0
2017-Dec-07 13:30N 38°03' E 023°31'0 0.0
2017-Dec-07 13:00N 38°03' E 023°31'0 0.0
2017-Dec-07 12:30N 38°03' E 023°31'0 0.0
2017-Dec-07 12:00N 38°03' E 023°31'0 0.0
2017-Dec-07 11:30N 38°03' E 023°31'0 0.0
2017-Dec-07 11:00N 38°03' E 023°31'0 0.0
2017-Dec-07 10:30N 38°03' E 023°31'0 0.0
2017-Dec-07 10:00N 38°03' E 023°31'0 0.0
2017-Dec-07 09:30N 38°03' E 023°31'0 0.0
2017-Dec-07 09:00N 38°03' E 023°31'0 0.0
2017-Dec-07 08:30N 38°03' E 023°31'0 0.0
2017-Dec-07 08:00N 38°03' E 023°31'0 0.0
2017-Dec-07 07:30N 38°03' E 023°31'0 0.0
2017-Dec-07 07:00N 38°03' E 023°31'0 0.0
2017-Dec-07 06:30N 38°03' E 023°31'0 0.0
2017-Dec-07 06:00N 38°03' E 023°31'0 0.0
2017-Dec-07 05:30N 38°03' E 023°31'0 0.0
2017-Dec-07 05:00N 38°03' E 023°31'0 0.0
2017-Dec-07 04:30N 38°03' E 023°31'0 0.0
2017-Dec-07 04:00N 38°03' E 023°31'0 0.0
2017-Dec-07 03:30N 38°03' E 023°31'0 0.0
2017-Dec-07 03:00N 38°03' E 023°31'0 0.0
2017-Dec-07 02:30N 38°03' E 023°31'0 0.0
2017-Dec-07 02:00N 38°03' E 023°31'0 0.0
2017-Dec-07 01:30N 38°03' E 023°31'0 0.0
2017-Dec-07 01:00N 38°03' E 023°31'0 0.0
2017-Dec-07 00:30N 38°03' E 023°31'0 0.0
2017-Dec-07 00:00N 38°03' E 023°31'0 0.0
2017-Dec-06 23:30N 38°03' E 023°31'0 0.0
2017-Dec-06 23:00N 38°03' E 023°31'0 0.0
2017-Dec-06 22:30N 38°03' E 023°31'0 0.0
2017-Dec-06 22:00N 38°03' E 023°31'0 0.0
2017-Dec-06 21:31N 38°03' E 023°31'0 0.0
2017-Dec-06 21:00N 38°03' E 023°31'  
2017-Dec-04 10:30N 38°02' E 023°31'0 0.0
2017-Dec-04 10:00N 38°02' E 023°31'0 0.7
2017-Dec-04 09:30N 38°02' E 023°31'1 1.1
2017-Dec-04 09:00N 38°02' E 023°31'0 0.0
2017-Dec-04 08:30N 38°02' E 023°31'0 0.0
2017-Dec-04 08:00N 38°02' E 023°31'0 0.0
2017-Dec-04 07:30N 38°02' E 023°31'0 0.0
2017-Dec-04 07:00N 38°02' E 023°31'0 0.0
2017-Dec-04 06:30N 38°02' E 023°31'0 0.0
2017-Dec-04 06:00N 38°02' E 023°31'0 0.0
2017-Dec-04 05:30N 38°02' E 023°31'0 0.0
2017-Dec-04 05:00N 38°02' E 023°31'0 0.0
2017-Dec-04 04:30N 38°02' E 023°31'0 0.0
2017-Dec-04 04:00N 38°02' E 023°31'0 0.0
2017-Dec-04 03:31N 38°02' E 023°31'0 0.0
2017-Dec-04 03:01N 38°02' E 023°31'0 0.0
2017-Dec-04 02:30N 38°02' E 023°31'0 0.0
2017-Dec-04 02:00N 38°02' E 023°31'0 0.0
2017-Dec-04 01:30N 38°02' E 023°31'0 0.0
2017-Dec-04 01:00N 38°02' E 023°31'0 0.0
2017-Dec-04 00:30N 38°02' E 023°31'0 0.0
2017-Dec-04 00:00N 38°02' E 023°31'0 0.0
2017-Dec-03 23:30N 38°02' E 023°31'0 0.0
2017-Dec-03 23:01N 38°02' E 023°31'0 0.0
2017-Dec-03 22:30N 38°02' E 023°31'0 0.0
2017-Dec-03 22:00N 38°02' E 023°31'0 0.0
2017-Dec-03 21:30N 38°02' E 023°31'0 0.0
2017-Dec-03 21:00N 38°02' E 023°31'0 0.0
2017-Dec-03 20:30N 38°02' E 023°31'0 0.0
2017-Dec-03 20:00N 38°02' E 023°31'0 0.0
2017-Dec-03 19:30N 38°02' E 023°31'0 0.0
2017-Dec-03 19:00N 38°02' E 023°31'0 0.0
2017-Dec-03 18:31N 38°02' E 023°31'0 0.0
2017-Dec-03 18:00N 38°02' E 023°31'2 5.0
2017-Dec-03 17:30N 38°00' E 023°33'3 6.9
2017-Dec-03 17:00N 37°57' E 023°34'3 5.2
2017-Dec-03 16:30N 37°55' E 023°34'0 0.2
2017-Dec-03 16:00N 37°55' E 023°34'0 0.1
2017-Dec-03 15:30N 37°55' E 023°34'0 0.0
2017-Dec-03 15:00N 37°55' E 023°34'0 0.0
2017-Dec-03 14:30N 37°55' E 023°34'0 0.1
2017-Dec-03 14:00N 37°55' E 023°33'0 0.8
2017-Dec-03 13:30N 37°54' E 023°33'3 5.7
2017-Dec-03 13:00N 37°52' E 023°31'0 0.0
2017-Dec-03 12:30N 37°52' E 023°31'0 0.1
2017-Dec-03 12:00N 37°52' E 023°31'0 0.1
2017-Dec-03 11:30N 37°52' E 023°31'0 0.0
2017-Dec-03 11:00N 37°52' E 023°31'0 0.9
2017-Dec-03 10:30N 37°52' E 023°32'4 7.0
2017-Dec-03 10:00N 37°55' E 023°34'3 5.3
2017-Dec-03 09:30N 37°58' E 023°33'4 7.3
2017-Dec-03 09:00N 38°01' E 023°32'1 2.7
2017-Dec-03 08:30N 38°02' E 023°31'0 0.0
2017-Dec-03 08:00N 38°02' E 023°31'0 0.0
2017-Dec-03 07:30N 38°02' E 023°31'0 0.0
2017-Dec-03 07:00N 38°02' E 023°31'0 0.0
2017-Dec-03 06:30N 38°02' E 023°31'0 0.0
2017-Dec-03 06:00N 38°02' E 023°31'0 0.0
2017-Dec-03 05:30N 38°02' E 023°31'0 0.0
2017-Dec-03 05:01N 38°02' E 023°31'0 0.0
2017-Dec-03 04:30N 38°02' E 023°31'0 0.0
2017-Dec-03 04:00N 38°02' E 023°31'0 0.0
2017-Dec-03 03:30N 38°02' E 023°31'0 0.0
2017-Dec-03 03:00N 38°02' E 023°31'0 0.0
2017-Dec-03 02:31N 38°02' E 023°31'0 0.0
2017-Dec-03 02:00N 38°02' E 023°31'0 0.0
2017-Dec-03 01:30N 38°02' E 023°31'0 0.0
2017-Dec-03 01:00N 38°02' E 023°31'0 0.0
2017-Dec-03 00:30N 38°02' E 023°31'0 0.0
2017-Dec-03 00:00N 38°02' E 023°31'0 0.0
2017-Dec-02 23:30N 38°02' E 023°31'0 0.0
2017-Dec-02 23:00N 38°02' E 023°31'0 0.0
2017-Dec-02 22:30N 38°02' E 023°31'0 0.0
2017-Dec-02 22:00N 38°02' E 023°31'0 0.0
2017-Dec-02 21:30N 38°02' E 023°31'0 0.0
2017-Dec-02 21:00N 38°02' E 023°31'0 0.0
2017-Dec-02 20:30N 38°02' E 023°31'0 0.0
2017-Dec-02 20:00N 38°02' E 023°31'0 0.0
2017-Dec-02 19:30N 38°02' E 023°31'0 0.0
2017-Dec-02 19:00N 38°02' E 023°31'0 0.0
2017-Dec-02 18:30N 38°02' E 023°31'0 0.0
2017-Dec-02 18:01N 38°02' E 023°31'0 0.0
2017-Dec-02 17:30N 38°02' E 023°31'0 0.0
2017-Dec-02 17:00N 38°02' E 023°31'0 0.0
2017-Dec-02 16:30N 38°02' E 023°31'0 0.0
2017-Dec-02 16:00N 38°02' E 023°31'0 0.0
2017-Dec-02 15:30N 38°02' E 023°31'0 0.0
2017-Dec-02 15:00N 38°02' E 023°31'0 0.0
2017-Dec-02 14:30N 38°02' E 023°31'0 0.0
2017-Dec-02 14:00N 38°02' E 023°31'0 0.0
2017-Dec-02 13:30N 38°02' E 023°31'0 0.0
2017-Dec-02 13:00N 38°02' E 023°31'0 0.0
2017-Dec-02 12:30N 38°02' E 023°31'0 0.1
2017-Dec-02 12:01N 38°02' E 023°31'3 6.1
2017-Dec-02 11:30N 38°02' E 023°35'0 0.7
2017-Dec-02 11:00N 38°02' E 023°36'0 0.0
2017-Dec-02 10:30N 38°02' E 023°36'0 0.0
2017-Dec-02 10:00N 38°02' E 023°36'0 0.0
2017-Dec-02 09:30N 38°02' E 023°36'0 0.0
2017-Dec-02 09:00N 38°02' E 023°36'0 0.0
2017-Dec-02 08:30N 38°02' E 023°36'0 0.0
2017-Dec-02 08:01N 38°02' E 023°36'0 0.0
2017-Dec-02 07:30N 38°02' E 023°36'1 1.1
2017-Dec-02 07:00N 38°02' E 023°35'3 5.8
2017-Dec-02 06:30N 38°02' E 023°32'0 0.1
2017-Dec-02 06:00N 38°02' E 023°31'0 0.0
2017-Dec-02 05:30N 38°02' E 023°31'0 0.0
2017-Dec-02 05:00N 38°02' E 023°31'0 0.0
2017-Dec-02 04:30N 38°02' E 023°31'0 0.0
2017-Dec-02 04:00N 38°02' E 023°31'0 0.0
2017-Dec-02 03:30N 38°02' E 023°31'0 0.0
2017-Dec-02 03:00N 38°02' E 023°31'0 0.0
2017-Dec-02 02:30N 38°02' E 023°31'0 0.0
2017-Dec-02 02:00N 38°02' E 023°31'0 0.0
2017-Dec-02 01:30N 38°02' E 023°31'0 0.0
2017-Dec-02 01:00N 38°02' E 023°31'0 0.0
2017-Dec-02 00:30N 38°02' E 023°31'0 0.0
2017-Dec-02 00:00N 38°02' E 023°31'0 0.0
2017-Dec-01 23:30N 38°02' E 023°31'0 0.0
2017-Dec-01 23:00N 38°02' E 023°31'0 0.0
2017-Dec-01 22:30N 38°02' E 023°31'0 0.0
2017-Dec-01 22:00N 38°02' E 023°31'0 0.0
2017-Dec-01 21:30N 38°02' E 023°31'0 0.0
2017-Dec-01 21:00N 38°02' E 023°31'0 0.0
2017-Dec-01 20:30N 38°02' E 023°31'0 0.0
2017-Dec-01 20:01N 38°02' E 023°31'0 0.0
2017-Dec-01 19:30N 38°02' E 023°31'0 0.0
2017-Dec-01 19:00N 38°02' E 023°31'0 0.0
2017-Dec-01 18:30N 38°02' E 023°31'0 0.0
2017-Dec-01 18:00N 38°02' E 023°31'0 0.0
2017-Dec-01 17:30N 38°02' E 023°31'0 0.0
2017-Dec-01 17:00N 38°02' E 023°31'  
Track history (hours):
 
Tides and Currents Weather Stations Pressure Air Temp Water Temp Dewpoint Dewpoint Depression Visibility Wind Speed Wind Dir Waves Ship Positions

Accord

Last reported at 2017-Dec-11 17:00 UTC. Time now 2017-Dec-11 22:55 UTC.
Position N 38°02' E 023°31'.

Length 77 m; draft 4.4 m.

Type: Tanker. MMSI: 239998600.

Date/timePositionNaut miles runAvg speedWind from/ knotsBaromVisibWave heightAir tempDewpointWater temp
2017-Dec-11 17:00N 38°02' E 023°31'0 0.0
2017-Dec-11 16:30N 38°02' E 023°31'0 0.0
2017-Dec-11 16:00N 38°02' E 023°31'0 0.0
2017-Dec-11 15:30N 38°02' E 023°31'0 0.0
2017-Dec-11 15:00N 38°02' E 023°31'3 6.4
2017-Dec-11 14:30N 37°59' E 023°33'4 7.2
2017-Dec-11 14:00N 37°56' E 023°35'1 2.8
2017-Dec-11 13:30N 37°55' E 023°34'0 0.0
2017-Dec-11 13:00N 37°55' E 023°34'0 0.0
2017-Dec-11 12:30N 37°55' E 023°34'0 0.0
2017-Dec-11 12:00N 37°55' E 023°34'0 0.0
2017-Dec-11 11:30N 37°55' E 023°34'0 0.0
2017-Dec-11 11:00N 37°55' E 023°34'0 0.0
2017-Dec-11 10:30N 37°55' E 023°34'0 0.1
2017-Dec-11 10:00N 37°55' E 023°34'2 4.1
2017-Dec-11 09:30N 37°57' E 023°34'4 7.5
2017-Dec-11 09:00N 38°00' E 023°32'1 2.2
2017-Dec-11 08:30N 38°01' E 023°31'0 0.0
2017-Dec-11 08:00N 38°01' E 023°31'0 0.0
2017-Dec-11 07:30N 38°01' E 023°31'0 0.1
2017-Dec-11 07:00N 38°01' E 023°31'0 0.1
2017-Dec-11 06:30N 38°01' E 023°31'0 0.1
2017-Dec-11 06:00N 38°01' E 023°31'0 0.0
2017-Dec-11 05:30N 38°01' E 023°31'0 0.0
2017-Dec-11 05:00N 38°01' E 023°31'1 1.5
2017-Dec-11 04:30N 38°02' E 023°31'1 1.1
2017-Dec-11 04:00N 38°03' E 023°31'0 0.0
2017-Dec-11 03:30N 38°03' E 023°31'0 0.0
2017-Dec-11 03:00N 38°03' E 023°31'0 0.0
2017-Dec-11 02:30N 38°03' E 023°31'0 0.0
2017-Dec-11 02:01N 38°03' E 023°31'0 0.0
2017-Dec-11 01:30N 38°03' E 023°31'0 0.0
2017-Dec-11 01:00N 38°03' E 023°31'0 0.0
2017-Dec-11 00:30N 38°03' E 023°31'0 0.0
2017-Dec-11 00:00N 38°03' E 023°31'0 0.0
2017-Dec-10 23:30N 38°03' E 023°31'0 0.0
2017-Dec-10 23:00N 38°03' E 023°31'0 0.0
2017-Dec-10 22:30N 38°03' E 023°31'0 0.0
2017-Dec-10 22:00N 38°03' E 023°31'0 0.0
2017-Dec-10 21:30N 38°03' E 023°31'0 0.0
2017-Dec-10 21:00N 38°03' E 023°31'0 0.0
2017-Dec-10 20:30N 38°03' E 023°31'0 0.0
2017-Dec-10 20:00N 38°03' E 023°31'0 0.0
2017-Dec-10 19:30N 38°03' E 023°31'0 0.0
2017-Dec-10 19:00N 38°03' E 023°31'0 0.0
2017-Dec-10 18:30N 38°03' E 023°31'0 0.0
2017-Dec-10 18:00N 38°03' E 023°31'0 0.0
2017-Dec-10 17:30N 38°03' E 023°31'0 0.0
2017-Dec-10 17:00N 38°03' E 023°31'0 0.0
2017-Dec-10 16:30N 38°03' E 023°31'0 0.0
2017-Dec-10 16:00N 38°03' E 023°31'0 0.0
2017-Dec-10 15:30N 38°03' E 023°31'0 0.0
2017-Dec-10 15:00N 38°03' E 023°31'1 2.4
2017-Dec-10 14:30N 38°02' E 023°33'2 4.8
2017-Dec-10 14:00N 38°02' E 023°36'0 0.0
2017-Dec-10 13:30N 38°02' E 023°36'0 0.0
2017-Dec-10 13:00N 38°02' E 023°36'0 0.0
2017-Dec-10 12:30N 38°02' E 023°36'0 0.0
2017-Dec-10 12:00N 38°02' E 023°36'0 0.0
2017-Dec-10 11:30N 38°02' E 023°36'0 0.0
2017-Dec-10 11:00N 38°02' E 023°36'1 1.4
2017-Dec-10 10:30N 38°01' E 023°35'1 2.3
2017-Dec-10 10:00N 38°01' E 023°34'3 6.3
2017-Dec-10 09:30N 37°57' E 023°33'3 5.3
2017-Dec-10 09:00N 37°55' E 023°34'3 6.5
2017-Dec-10 08:30N 37°52' E 023°32'0 0.0
2017-Dec-10 08:00N 37°52' E 023°32'0 0.0
2017-Dec-10 07:30N 37°52' E 023°32'0 0.6
2017-Dec-10 07:00N 37°52' E 023°32'4 7.4
2017-Dec-10 06:30N 37°55' E 023°34'3 6.1
2017-Dec-10 06:00N 37°58' E 023°33'4 7.7
2017-Dec-10 05:30N 38°02' E 023°32'1 1.1
2017-Dec-10 05:00N 38°03' E 023°31'0 0.0
2017-Dec-10 04:30N 38°03' E 023°31'0 0.0
2017-Dec-10 04:00N 38°03' E 023°31'0 0.0
2017-Dec-10 03:30N 38°03' E 023°31'0 0.0
2017-Dec-10 03:01N 38°03' E 023°31'0 0.0
2017-Dec-10 02:30N 38°03' E 023°31'0 0.0
2017-Dec-10 02:00N 38°03' E 023°31'0 0.0
2017-Dec-10 01:30N 38°03' E 023°31'0 0.0
2017-Dec-10 01:00N 38°03' E 023°31'0 0.0
2017-Dec-10 00:31N 38°03' E 023°31'0 0.0
2017-Dec-10 00:00N 38°03' E 023°31'0 0.0
2017-Dec-09 23:31N 38°03' E 023°31'0 0.0
2017-Dec-09 23:00N 38°03' E 023°31'0 0.0
2017-Dec-09 22:30N 38°03' E 023°31'0 0.0
2017-Dec-09 22:00N 38°03' E 023°31'0 0.0
2017-Dec-09 21:30N 38°03' E 023°31'0 0.0
2017-Dec-09 21:01N 38°03' E 023°31'0 0.0
2017-Dec-09 20:30N 38°03' E 023°31'0 0.0
2017-Dec-09 20:00N 38°03' E 023°31'0 0.0
2017-Dec-09 19:30N 38°03' E 023°31'0 0.0
2017-Dec-09 19:00N 38°03' E 023°31'0 0.0
2017-Dec-09 18:30N 38°03' E 023°31'0 0.0
2017-Dec-09 18:00N 38°03' E 023°31'0 0.0
2017-Dec-09 17:30N 38°03' E 023°31'0 0.0
2017-Dec-09 17:00N 38°03' E 023°31'0 0.0
2017-Dec-09 16:30N 38°03' E 023°31'0 0.0
2017-Dec-09 16:00N 38°03' E 023°31'0 0.0
2017-Dec-09 15:30N 38°03' E 023°31'0 0.0
2017-Dec-09 15:00N 38°03' E 023°31'0 0.0
2017-Dec-09 14:30N 38°03' E 023°31'0 0.0
2017-Dec-09 14:00N 38°03' E 023°31'0 0.0
2017-Dec-09 13:30N 38°03' E 023°31'0 0.0
2017-Dec-09 13:00N 38°03' E 023°31'0 0.0
2017-Dec-09 12:30N 38°03' E 023°31'0 0.0
2017-Dec-09 12:00N 38°03' E 023°31'0 0.0
2017-Dec-09 11:30N 38°03' E 023°31'0 0.0
2017-Dec-09 11:00N 38°03' E 023°31'0 0.0
2017-Dec-09 10:30N 38°03' E 023°31'0 0.0
2017-Dec-09 10:00N 38°03' E 023°31'0 0.0
2017-Dec-09 09:30N 38°03' E 023°31'0 0.0
2017-Dec-09 09:00N 38°03' E 023°31'0 0.0
2017-Dec-09 08:30N 38°03' E 023°31'0 0.0
2017-Dec-09 08:00N 38°03' E 023°31'0 0.0
2017-Dec-09 07:30N 38°03' E 023°31'0 0.0
2017-Dec-09 07:00N 38°03' E 023°31'0 0.0
2017-Dec-09 06:30N 38°03' E 023°31'0 0.0
2017-Dec-09 06:00N 38°03' E 023°31'0 0.0
2017-Dec-09 05:30N 38°03' E 023°31'0 0.0
2017-Dec-09 05:00N 38°03' E 023°31'0 0.0
2017-Dec-09 04:30N 38°03' E 023°31'0 0.0
2017-Dec-09 04:01N 38°03' E 023°31'0 0.0
2017-Dec-09 03:30N 38°03' E 023°31'0 0.0
2017-Dec-09 03:00N 38°03' E 023°31'0 0.0
2017-Dec-09 02:30N 38°03' E 023°31'0 0.0
2017-Dec-09 02:00N 38°03' E 023°31'0 0.0
2017-Dec-09 01:30N 38°03' E 023°31'0 0.4
2017-Dec-09 01:00N 38°02' E 023°32'4 8.0
2017-Dec-09 00:30N 38°00' E 023°27'3 5.3
2017-Dec-09 00:00N 37°58' E 023°26'4 7.9
2017-Dec-08 23:30N 37°55' E 023°23'4 7.9
2017-Dec-08 23:00N 37°52' E 023°27'3 5.3
2017-Dec-08 22:30N 37°52' E 023°30'0 0.1
2017-Dec-08 22:00N 37°52' E 023°30'0 0.1
2017-Dec-08 21:30N 37°52' E 023°30'0 0.1
2017-Dec-08 21:00N 37°52' E 023°30'0 0.0
2017-Dec-08 20:30N 37°52' E 023°30'0 0.0
2017-Dec-08 20:00N 37°52' E 023°30'0 0.1
2017-Dec-08 19:30N 37°52' E 023°30'0 0.0
2017-Dec-08 19:00N 37°52' E 023°30'0 0.1
2017-Dec-08 18:30N 37°52' E 023°30'0 0.0
2017-Dec-08 18:00N 37°52' E 023°30'0 0.0
2017-Dec-08 17:30N 37°52' E 023°30'0 0.1
2017-Dec-08 17:00N 37°52' E 023°30'0 0.9
2017-Dec-08 16:30N 37°53' E 023°31'4 7.8
2017-Dec-08 16:00N 37°56' E 023°34'3 5.2
2017-Dec-08 15:30N 37°58' E 023°33'4 7.4
2017-Dec-08 15:00N 38°01' E 023°35'1 1.1
2017-Dec-08 14:30N 38°02' E 023°36'0 0.0
2017-Dec-08 14:00N 38°02' E 023°36'0 0.0
2017-Dec-08 13:30N 38°02' E 023°36'0 0.0
2017-Dec-08 13:00N 38°02' E 023°36'0 0.0
2017-Dec-08 12:30N 38°02' E 023°36'0 0.0
2017-Dec-08 12:00N 38°02' E 023°36'0 0.0
2017-Dec-08 11:30N 38°02' E 023°36'0 0.0
2017-Dec-08 11:00N 38°02' E 023°36'0 0.0
2017-Dec-08 10:30N 38°02' E 023°36'0 0.0
2017-Dec-08 10:00N 38°02' E 023°36'0 0.0
2017-Dec-08 09:30N 38°02' E 023°36'0 0.8
2017-Dec-08 09:00N 38°02' E 023°35'0 0.4
2017-Dec-08 08:30N 38°02' E 023°35'0 0.0
2017-Dec-08 08:00N 38°02' E 023°35'0 0.0
2017-Dec-08 07:30N 38°02' E 023°35'0 0.2
2017-Dec-08 07:00N 38°02' E 023°35'3 5.4
2017-Dec-08 06:30N 38°02' E 023°31'0 0.2
2017-Dec-08 06:00N 38°03' E 023°31'0 0.0
2017-Dec-08 05:30N 38°03' E 023°31'0 0.0
2017-Dec-08 05:00N 38°03' E 023°31'0 0.0
2017-Dec-08 04:30N 38°03' E 023°31'0 0.0
2017-Dec-08 04:00N 38°03' E 023°31'0 0.0
2017-Dec-08 03:30N 38°03' E 023°31'0 0.0
2017-Dec-08 03:00N 38°03' E 023°31'0 0.0
2017-Dec-08 02:30N 38°03' E 023°31'0 0.0
2017-Dec-08 02:00N 38°03' E 023°31'0 0.0
2017-Dec-08 01:30N 38°03' E 023°31'0 0.0
2017-Dec-08 01:00N 38°03' E 023°31'0 0.0
2017-Dec-08 00:30N 38°03' E 023°31'0 0.0
2017-Dec-08 00:00N 38°03' E 023°31'0 0.0
2017-Dec-07 23:30N 38°03' E 023°31'0 0.0
2017-Dec-07 23:00N 38°03' E 023°31'0 0.0
2017-Dec-07 22:30N 38°03' E 023°31'0 0.0
2017-Dec-07 22:00N 38°03' E 023°31'0 0.0
2017-Dec-07 21:30N 38°03' E 023°31'0 0.0
2017-Dec-07 21:00N 38°03' E 023°31'0 0.0
2017-Dec-07 20:30N 38°03' E 023°31'0 0.0
2017-Dec-07 20:00N 38°03' E 023°31'0 0.0
2017-Dec-07 19:30N 38°03' E 023°31'0 0.0
2017-Dec-07 19:00N 38°03' E 023°31'0 0.0
2017-Dec-07 18:30N 38°03' E 023°31'0 0.0
2017-Dec-07 18:00N 38°03' E 023°31'0 0.0
2017-Dec-07 17:30N 38°03' E 023°31'0 0.0
2017-Dec-07 17:00N 38°03' E 023°31'0 0.0
2017-Dec-07 16:30N 38°03' E 023°31'0 0.0
2017-Dec-07 16:00N 38°03' E 023°31'0 0.0
2017-Dec-07 15:30N 38°03' E 023°31'0 0.0
2017-Dec-07 15:00N 38°03' E 023°31'0 0.0
2017-Dec-07 14:30N 38°03' E 023°31'0 0.0
2017-Dec-07 14:00N 38°03' E 023°31'0 0.0
2017-Dec-07 13:30N 38°03' E 023°31'0 0.0
2017-Dec-07 13:00N 38°03' E 023°31'0 0.0
2017-Dec-07 12:30N 38°03' E 023°31'0 0.0
2017-Dec-07 12:00N 38°03' E 023°31'0 0.0
2017-Dec-07 11:30N 38°03' E 023°31'0 0.0
2017-Dec-07 11:00N 38°03' E 023°31'0 0.0
2017-Dec-07 10:30N 38°03' E 023°31'0 0.0
2017-Dec-07 10:00N 38°03' E 023°31'0 0.0
2017-Dec-07 09:30N 38°03' E 023°31'0 0.0
2017-Dec-07 09:00N 38°03' E 023°31'0 0.0
2017-Dec-07 08:30N 38°03' E 023°31'0 0.0
2017-Dec-07 08:00N 38°03' E 023°31'0 0.0
2017-Dec-07 07:30N 38°03' E 023°31'0 0.0
2017-Dec-07 07:00N 38°03' E 023°31'0 0.0
2017-Dec-07 06:30N 38°03' E 023°31'0 0.0
2017-Dec-07 06:00N 38°03' E 023°31'0 0.0
2017-Dec-07 05:30N 38°03' E 023°31'0 0.0
2017-Dec-07 05:00N 38°03' E 023°31'0 0.0
2017-Dec-07 04:30N 38°03' E 023°31'0 0.0
2017-Dec-07 04:00N 38°03' E 023°31'0 0.0
2017-Dec-07 03:30N 38°03' E 023°31'0 0.0
2017-Dec-07 03:00N 38°03' E 023°31'0 0.0
2017-Dec-07 02:30N 38°03' E 023°31'0 0.0
2017-Dec-07 02:00N 38°03' E 023°31'0 0.0
2017-Dec-07 01:30N 38°03' E 023°31'0 0.0
2017-Dec-07 01:00N 38°03' E 023°31'0 0.0
2017-Dec-07 00:30N 38°03' E 023°31'0 0.0
2017-Dec-07 00:00N 38°03' E 023°31'0 0.0
2017-Dec-06 23:30N 38°03' E 023°31'0 0.0
2017-Dec-06 23:00N 38°03' E 023°31'0 0.0
2017-Dec-06 22:30N 38°03' E 023°31'0 0.0
2017-Dec-06 22:00N 38°03' E 023°31'0 0.0
2017-Dec-06 21:31N 38°03' E 023°31'0 0.0
2017-Dec-06 21:00N 38°03' E 023°31'  
2017-Dec-04 10:30N 38°02' E 023°31'0 0.0
2017-Dec-04 10:00N 38°02' E 023°31'0 0.7
2017-Dec-04 09:30N 38°02' E 023°31'1 1.1
2017-Dec-04 09:00N 38°02' E 023°31'0 0.0
2017-Dec-04 08:30N 38°02' E 023°31'0 0.0
2017-Dec-04 08:00N 38°02' E 023°31'0 0.0
2017-Dec-04 07:30N 38°02' E 023°31'0 0.0
2017-Dec-04 07:00N 38°02' E 023°31'0 0.0
2017-Dec-04 06:30N 38°02' E 023°31'0 0.0
2017-Dec-04 06:00N 38°02' E 023°31'0 0.0
2017-Dec-04 05:30N 38°02' E 023°31'0 0.0
2017-Dec-04 05:00N 38°02' E 023°31'0 0.0
2017-Dec-04 04:30N 38°02' E 023°31'0 0.0
2017-Dec-04 04:00N 38°02' E 023°31'0 0.0
2017-Dec-04 03:31N 38°02' E 023°31'0 0.0
2017-Dec-04 03:01N 38°02' E 023°31'0 0.0
2017-Dec-04 02:30N 38°02' E 023°31'0 0.0
2017-Dec-04 02:00N 38°02' E 023°31'0 0.0
2017-Dec-04 01:30N 38°02' E 023°31'0 0.0
2017-Dec-04 01:00N 38°02' E 023°31'0 0.0
2017-Dec-04 00:30N 38°02' E 023°31'0 0.0
2017-Dec-04 00:00N 38°02' E 023°31'0 0.0
2017-Dec-03 23:30N 38°02' E 023°31'0 0.0
2017-Dec-03 23:01N 38°02' E 023°31'0 0.0
2017-Dec-03 22:30N 38°02' E 023°31'0 0.0
2017-Dec-03 22:00N 38°02' E 023°31'0 0.0
2017-Dec-03 21:30N 38°02' E 023°31'0 0.0
2017-Dec-03 21:00N 38°02' E 023°31'0 0.0
2017-Dec-03 20:30N 38°02' E 023°31'0 0.0
2017-Dec-03 20:00N 38°02' E 023°31'0 0.0
2017-Dec-03 19:30N 38°02' E 023°31'0 0.0
2017-Dec-03 19:00N 38°02' E 023°31'0 0.0
2017-Dec-03 18:31N 38°02' E 023°31'0 0.0
2017-Dec-03 18:00N 38°02' E 023°31'2 5.0
2017-Dec-03 17:30N 38°00' E 023°33'3 6.9
2017-Dec-03 17:00N 37°57' E 023°34'3 5.2
2017-Dec-03 16:30N 37°55' E 023°34'0 0.2
2017-Dec-03 16:00N 37°55' E 023°34'0 0.1
2017-Dec-03 15:30N 37°55' E 023°34'0 0.0
2017-Dec-03 15:00N 37°55' E 023°34'0 0.0
2017-Dec-03 14:30N 37°55' E 023°34'0 0.1
2017-Dec-03 14:00N 37°55' E 023°33'0 0.8
2017-Dec-03 13:30N 37°54' E 023°33'3 5.7
2017-Dec-03 13:00N 37°52' E 023°31'0 0.0
2017-Dec-03 12:30N 37°52' E 023°31'0 0.1
2017-Dec-03 12:00N 37°52' E 023°31'0 0.1
2017-Dec-03 11:30N 37°52' E 023°31'0 0.0
2017-Dec-03 11:00N 37°52' E 023°31'0 0.9
2017-Dec-03 10:30N 37°52' E 023°32'4 7.0
2017-Dec-03 10:00N 37°55' E 023°34'3 5.3
2017-Dec-03 09:30N 37°58' E 023°33'4 7.3
2017-Dec-03 09:00N 38°01' E 023°32'1 2.7
2017-Dec-03 08:30N 38°02' E 023°31'0 0.0
2017-Dec-03 08:00N 38°02' E 023°31'0 0.0
2017-Dec-03 07:30N 38°02' E 023°31'0 0.0
2017-Dec-03 07:00N 38°02' E 023°31'0 0.0
2017-Dec-03 06:30N 38°02' E 023°31'0 0.0
2017-Dec-03 06:00N 38°02' E 023°31'0 0.0
2017-Dec-03 05:30N 38°02' E 023°31'0 0.0
2017-Dec-03 05:01N 38°02' E 023°31'0 0.0
2017-Dec-03 04:30N 38°02' E 023°31'0 0.0
2017-Dec-03 04:00N 38°02' E 023°31'0 0.0
2017-Dec-03 03:30N 38°02' E 023°31'0 0.0
2017-Dec-03 03:00N 38°02' E 023°31'0 0.0
2017-Dec-03 02:31N 38°02' E 023°31'0 0.0
2017-Dec-03 02:00N 38°02' E 023°31'0 0.0
2017-Dec-03 01:30N 38°02' E 023°31'0 0.0
2017-Dec-03 01:00N 38°02' E 023°31'0 0.0
2017-Dec-03 00:30N 38°02' E 023°31'0 0.0
2017-Dec-03 00:00N 38°02' E 023°31'0 0.0
2017-Dec-02 23:30N 38°02' E 023°31'0 0.0
2017-Dec-02 23:00N 38°02' E 023°31'0 0.0
2017-Dec-02 22:30N 38°02' E 023°31'0 0.0
2017-Dec-02 22:00N 38°02' E 023°31'0 0.0
2017-Dec-02 21:30N 38°02' E 023°31'0 0.0
2017-Dec-02 21:00N 38°02' E 023°31'0 0.0
2017-Dec-02 20:30N 38°02' E 023°31'0 0.0
2017-Dec-02 20:00N 38°02' E 023°31'0 0.0
2017-Dec-02 19:30N 38°02' E 023°31'0 0.0
2017-Dec-02 19:00N 38°02' E 023°31'0 0.0
2017-Dec-02 18:30N 38°02' E 023°31'0 0.0
2017-Dec-02 18:01N 38°02' E 023°31'0 0.0
2017-Dec-02 17:30N 38°02' E 023°31'0 0.0
2017-Dec-02 17:00N 38°02' E 023°31'0 0.0
2017-Dec-02 16:30N 38°02' E 023°31'0 0.0
2017-Dec-02 16:00N 38°02' E 023°31'0 0.0
2017-Dec-02 15:30N 38°02' E 023°31'0 0.0
2017-Dec-02 15:00N 38°02' E 023°31'0 0.0
2017-Dec-02 14:30N 38°02' E 023°31'0 0.0
2017-Dec-02 14:00N 38°02' E 023°31'0 0.0
2017-Dec-02 13:30N 38°02' E 023°31'0 0.0
2017-Dec-02 13:00N 38°02' E 023°31'0 0.0
2017-Dec-02 12:30N 38°02' E 023°31'0 0.1
2017-Dec-02 12:01N 38°02' E 023°31'3 6.1
2017-Dec-02 11:30N 38°02' E 023°35'0 0.7
2017-Dec-02 11:00N 38°02' E 023°36'0 0.0
2017-Dec-02 10:30N 38°02' E 023°36'0 0.0
2017-Dec-02 10:00N 38°02' E 023°36'0 0.0
2017-Dec-02 09:30N 38°02' E 023°36'0 0.0
2017-Dec-02 09:00N 38°02' E 023°36'0 0.0
2017-Dec-02 08:30N 38°02' E 023°36'0 0.0
2017-Dec-02 08:01N 38°02' E 023°36'0 0.0
2017-Dec-02 07:30N 38°02' E 023°36'1 1.1
2017-Dec-02 07:00N 38°02' E 023°35'3 5.8
2017-Dec-02 06:30N 38°02' E 023°32'0 0.1
2017-Dec-02 06:00N 38°02' E 023°31'0 0.0
2017-Dec-02 05:30N 38°02' E 023°31'0 0.0
2017-Dec-02 05:00N 38°02' E 023°31'0 0.0
2017-Dec-02 04:30N 38°02' E 023°31'0 0.0
2017-Dec-02 04:00N 38°02' E 023°31'0 0.0
2017-Dec-02 03:30N 38°02' E 023°31'0 0.0
2017-Dec-02 03:00N 38°02' E 023°31'0 0.0
2017-Dec-02 02:30N 38°02' E 023°31'0 0.0
2017-Dec-02 02:00N 38°02' E 023°31'0 0.0
2017-Dec-02 01:30N 38°02' E 023°31'0 0.0
2017-Dec-02 01:00N 38°02' E 023°31'0 0.0
2017-Dec-02 00:30N 38°02' E 023°31'0 0.0
2017-Dec-02 00:00N 38°02' E 023°31'0 0.0
2017-Dec-01 23:30N 38°02' E 023°31'0 0.0
2017-Dec-01 23:00N 38°02' E 023°31'0 0.0
2017-Dec-01 22:30N 38°02' E 023°31'0 0.0
2017-Dec-01 22:00N 38°02' E 023°31'0 0.0
2017-Dec-01 21:30N 38°02' E 023°31'0 0.0
2017-Dec-01 21:00N 38°02' E 023°31'0 0.0
2017-Dec-01 20:30N 38°02' E 023°31'0 0.0
2017-Dec-01 20:01N 38°02' E 023°31'0 0.0
2017-Dec-01 19:30N 38°02' E 023°31'0 0.0
2017-Dec-01 19:00N 38°02' E 023°31'0 0.0
2017-Dec-01 18:30N 38°02' E 023°31'0 0.0
2017-Dec-01 18:00N 38°02' E 023°31'0 0.0
2017-Dec-01 17:30N 38°02' E 023°31'0 0.0
2017-Dec-01 17:00N 38°02' E 023°31'  

Dump ship's entire track history